createdAt,value
2022-11-04T00:02:07.766Z,93882.59
2022-11-04T00:04:34.493Z,93886.22
2022-11-04T00:07:01.280Z,93894.03
2022-11-04T00:09:30.595Z,93894.31
2022-11-04T00:12:16.439Z,93889.19
2022-11-04T00:14:43.371Z,93900.44
2022-11-04T00:17:19.669Z,93905.00
2022-11-04T00:20:07.011Z,93902.75
2022-11-04T00:22:52.765Z,93902.38
2022-11-04T00:25:37.962Z,93900.19
2022-11-04T00:28:24.980Z,93899.97
2022-11-04T00:30:56.675Z,93903.03
2022-11-04T00:33:26.369Z,93907.97
2022-11-04T00:35:56.198Z,93911.97
2022-11-04T00:38:24.453Z,93912.72
2022-11-04T00:40:51.623Z,93921.59
2022-11-04T00:43:18.332Z,93910.03
2022-11-04T00:45:45.191Z,93911.75
2022-11-04T00:48:12.029Z,93903.00
2022-11-04T00:50:39.918Z,93906.84
2022-11-04T00:53:06.856Z,93906.25
2022-11-04T00:55:33.742Z,93917.03
2022-11-04T00:58:00.521Z,93934.34
2022-11-04T01:00:27.407Z,93917.34
2022-11-04T01:02:54.381Z,93912.88
2022-11-04T01:05:21.197Z,93920.59
2022-11-04T01:07:47.947Z,93905.72
2022-11-04T01:10:14.871Z,93903.53
2022-11-04T01:12:41.476Z,93899.47
2022-11-04T01:15:08.551Z,93899.81
2022-11-04T01:17:35.267Z,93904.00
2022-11-04T01:20:01.890Z,93898.91
2022-11-04T01:22:28.558Z,93889.97
2022-11-04T01:24:55.197Z,93885.78
2022-11-04T01:27:21.817Z,93896.13
2022-11-04T01:29:48.481Z,93879.41
2022-11-04T01:32:15.088Z,93882.31
2022-11-04T01:34:43.498Z,93879.69
2022-11-04T01:37:10.689Z,93868.19
2022-11-04T01:39:37.299Z,93858.22
2022-11-04T01:44:41.903Z,93837.81
2022-11-04T01:47:18.576Z,93840.91
2022-11-04T01:49:49.434Z,93841.91
2022-11-04T01:52:44.594Z,93834.03
2022-11-04T01:55:19.267Z,93835.38
2022-11-04T01:57:49.281Z,93838.72
2022-11-04T02:00:16.836Z,93848.50
2022-11-04T02:03:08.048Z,93857.22
2022-11-04T02:05:35.346Z,93853.41
2022-11-04T02:08:06.194Z,93853.25
2022-11-04T02:10:33.894Z,93862.03
2022-11-04T02:13:03.872Z,93854.09
2022-11-04T02:15:48.253Z,93861.91
2022-11-04T02:18:44.691Z,93863.53
2022-11-04T02:21:29.529Z,93872.69
2022-11-04T02:24:05.136Z,93868.13
2022-11-04T02:26:49.821Z,93867.59
2022-11-04T02:29:22.411Z,93868.72
2022-11-04T02:31:54.907Z,93868.91
2022-11-04T02:34:50.587Z,93863.47
2022-11-04T02:37:20.159Z,93865.00
2022-11-04T02:39:54.889Z,93862.81
2022-11-04T02:42:27.503Z,93863.53
2022-11-04T02:45:11.623Z,93858.69
2022-11-04T02:47:40.032Z,93858.69
2022-11-04T02:50:21.065Z,93852.03
2022-11-04T02:52:51.341Z,93844.19
2022-11-04T02:55:24.938Z,93848.84
2022-11-04T02:57:54.004Z,93832.56
2022-11-04T03:00:21.417Z,93833.97
2022-11-04T03:03:03.820Z,93835.56
2022-11-04T03:05:35.287Z,93837.72
2022-11-04T03:08:07.916Z,93831.28
2022-11-04T03:10:38.475Z,93833.69
2022-11-04T03:13:19.889Z,93831.28
2022-11-04T03:15:54.458Z,93832.28
2022-11-04T03:18:27.171Z,93835.78
2022-11-04T03:20:58.484Z,93832.84
2022-11-04T03:23:25.158Z,93833.53
2022-11-04T03:25:57.880Z,93829.44
2022-11-04T03:28:47.772Z,93832.28
2022-11-04T03:31:29.147Z,93839.50
2022-11-04T03:33:56.537Z,93834.81
2022-11-04T03:36:24.171Z,93836.16
2022-11-04T03:38:52.645Z,93842.84
2022-11-04T03:41:28.595Z,93840.72
2022-11-04T03:43:55.131Z,93833.75
2022-11-04T03:46:22.533Z,93828.28
2022-11-04T03:48:52.700Z,93822.56
2022-11-04T03:51:19.255Z,93813.47
2022-11-04T03:53:45.970Z,93813.25
2022-11-04T03:56:18.237Z,93825.97
2022-11-04T03:58:58.384Z,93807.88
2022-11-04T04:01:39.011Z,93810.44
2022-11-04T04:04:29.354Z,93817.38
2022-11-04T04:07:10.965Z,93812.38
2022-11-04T04:09:41.065Z,93829.50
2022-11-04T04:12:42.741Z,93839.41
2022-11-04T04:15:18.248Z,93843.75
2022-11-04T04:18:08.249Z,93864.47
2022-11-04T04:20:38.174Z,93850.53
2022-11-04T04:23:36.787Z,93838.44
2022-11-04T04:26:25.478Z,93837.69
2022-11-04T04:28:54.650Z,93835.31
2022-11-04T04:31:40.839Z,93821.03
2022-11-04T04:34:08.144Z,93827.13
2022-11-04T04:36:45.329Z,93835.69
2022-11-04T04:39:32.759Z,93856.06
2022-11-04T04:42:17.879Z,93872.44
2022-11-04T04:44:59.921Z,93859.75
2022-11-04T04:47:30.303Z,93859.28
2022-11-04T04:49:59.258Z,93862.50
2022-11-04T04:52:30.131Z,93859.28
2022-11-04T04:54:56.778Z,93854.03
2022-11-04T04:57:23.356Z,93853.06
2022-11-04T04:59:50.174Z,93844.94
2022-11-04T05:02:16.938Z,93834.59
2022-11-04T05:04:43.625Z,93843.13
2022-11-04T05:07:10.295Z,93847.38
2022-11-04T05:09:37.064Z,93839.19
2022-11-04T05:12:04.102Z,93844.97
2022-11-04T05:14:30.809Z,93848.00
2022-11-04T05:16:57.495Z,93846.09
2022-11-04T05:19:24.033Z,93864.06
2022-11-04T05:21:50.731Z,93873.88
2022-11-04T05:24:17.260Z,93875.38
2022-11-04T05:26:43.816Z,93891.44
2022-11-04T05:29:10.754Z,93892.69
2022-11-04T05:31:37.367Z,93885.06
2022-11-04T05:34:05.555Z,93889.97
2022-11-04T05:36:35.353Z,93893.59
2022-11-04T05:39:02.060Z,93873.56
2022-11-04T05:41:28.768Z,93859.66
2022-11-04T05:43:57.745Z,93855.47
2022-11-04T05:46:24.903Z,93859.84
2022-11-04T05:48:52.057Z,93858.06
2022-11-04T05:51:22.889Z,93852.84
2022-11-04T05:53:50.000Z,93850.69
2022-11-04T05:56:17.062Z,93863.97
2022-11-04T05:58:43.702Z,93860.69
2022-11-04T06:01:31.452Z,93855.88
2022-11-04T06:03:59.677Z,93847.72
2022-11-04T06:06:28.811Z,93846.56
2022-11-04T06:08:56.206Z,93860.59
2022-11-04T06:11:24.671Z,93875.28
2022-11-04T06:13:51.810Z,93871.25
2022-11-04T06:16:18.368Z,93863.09
2022-11-04T06:18:45.055Z,93865.22
2022-11-04T06:21:14.529Z,93879.03
2022-11-04T06:23:42.315Z,93873.56
2022-11-04T06:26:09.935Z,93869.91
2022-11-04T06:28:36.605Z,93856.72
2022-11-04T06:31:04.741Z,93848.09
2022-11-04T06:33:36.558Z,93842.34
2022-11-04T06:36:05.789Z,93849.97
2022-11-04T06:38:35.428Z,93851.66
2022-11-04T06:41:02.150Z,93845.19
2022-11-04T06:43:28.787Z,93861.84
2022-11-04T06:45:55.834Z,93858.97
2022-11-04T06:48:22.372Z,93858.16
2022-11-04T06:50:48.891Z,93875.69
2022-11-04T06:53:15.504Z,93876.97
2022-11-04T06:55:42.598Z,93869.91
2022-11-04T06:58:09.548Z,93846.66
2022-11-04T07:00:36.183Z,93846.16
2022-11-04T07:03:02.723Z,93844.56
2022-11-04T07:05:29.270Z,93848.72
2022-11-04T07:07:56.679Z,93853.50
2022-11-04T07:10:23.413Z,93867.09
2022-11-04T07:12:49.986Z,93874.22
2022-11-04T07:15:16.590Z,93880.38
2022-11-04T07:17:44.597Z,93873.69
2022-11-04T07:20:13.264Z,93868.66
2022-11-04T07:22:39.915Z,93875.34
2022-11-04T07:25:06.880Z,93883.47
2022-11-04T07:27:33.417Z,93892.94
2022-11-04T07:30:00.088Z,93908.50
2022-11-04T07:32:26.713Z,93924.00
2022-11-04T07:34:53.316Z,93920.63
2022-11-04T07:37:19.873Z,93909.69
2022-11-04T07:39:46.405Z,93916.06
2022-11-04T07:42:12.989Z,93905.56
2022-11-04T07:44:39.516Z,93895.09
2022-11-04T07:47:06.116Z,93897.72
2022-11-04T07:49:33.673Z,93897.72
2022-11-04T07:52:00.299Z,93899.63
2022-11-04T07:54:26.932Z,93901.03
2022-11-04T07:56:53.487Z,93901.03
2022-11-04T07:59:20.213Z,93922.72
2022-11-04T08:01:47.017Z,93918.44
2022-11-04T09:53:05.831Z,93864.09
2022-11-04T09:55:41.816Z,93869.72
2022-11-04T09:58:13.214Z,93865.63
2022-11-04T10:00:42.484Z,93871.84
2022-11-04T10:03:09.463Z,93874.91
2022-11-04T10:05:39.263Z,93868.66
2022-11-04T10:08:18.082Z,93860.16
2022-11-04T10:11:06.787Z,93853.66
2022-11-04T10:14:09.286Z,93841.00
2022-11-04T10:16:41.479Z,93831.25
2022-11-04T10:19:15.885Z,93829.03
2022-11-04T10:22:04.861Z,93827.38
2022-11-04T10:24:40.071Z,93816.38
2022-11-04T10:27:38.155Z,93816.09
2022-11-04T10:30:18.715Z,93817.31
2022-11-04T10:32:48.501Z,93803.69
2022-11-04T10:35:42.859Z,93806.06
2022-11-04T10:38:32.519Z,93784.94
2022-11-04T10:41:03.102Z,93795.78
2022-11-04T10:43:37.725Z,93794.78
2022-11-04T10:46:18.401Z,93796.41
2022-11-04T10:48:58.551Z,93798.56
2022-11-04T10:51:25.509Z,93788.06
2022-11-04T10:53:57.757Z,93767.50
2022-11-04T10:56:30.266Z,93793.56
2022-11-04T10:59:00.861Z,93788.25
2022-11-04T11:01:28.253Z,93788.69
2022-11-04T11:03:55.321Z,93797.97
2022-11-04T11:06:30.928Z,93792.72
2022-11-04T11:09:13.232Z,93779.56
2022-11-04T11:11:47.664Z,93787.66
2022-11-04T11:14:18.834Z,93805.31
2022-11-04T11:16:48.269Z,93802.94
2022-11-04T11:19:18.118Z,93773.19
2022-11-04T11:21:50.499Z,93792.75
2022-11-04T11:24:29.960Z,93792.91
2022-11-04T11:26:59.949Z,93792.91
2022-11-04T11:29:40.337Z,93800.78
2022-11-04T11:32:21.640Z,93800.09
2022-11-04T11:34:49.177Z,93816.53
2022-11-04T11:37:22.543Z,93815.13
2022-11-04T11:39:49.377Z,93827.03
2022-11-04T11:42:16.496Z,93802.28
2022-11-04T11:44:49.426Z,93819.34
2022-11-04T11:47:38.584Z,93817.75
2022-11-04T11:50:31.445Z,93814.38
2022-11-04T11:53:14.811Z,93821.78
2022-11-04T11:56:04.098Z,93821.97
2022-11-04T12:01:30.675Z,93819.56
2022-11-04T12:10:18.462Z,93800.88
2022-11-04T12:12:50.521Z,93818.34
2022-11-04T12:15:44.310Z,93819.78
2022-11-04T12:18:19.972Z,93812.28
2022-11-04T12:21:00.242Z,93832.47
2022-11-04T12:23:30.259Z,93832.38
2022-11-04T12:26:02.671Z,93818.78
2022-11-04T12:29:03.448Z,93816.75
2022-11-04T12:32:05.344Z,93818.25
2022-11-04T12:34:36.965Z,93801.25
2022-11-04T12:37:20.810Z,93814.91
2022-11-04T12:39:50.473Z,93820.16
2022-11-04T12:42:32.398Z,93808.06
2022-11-04T12:45:07.940Z,93810.53
2022-11-04T12:47:43.078Z,93811.63
2022-11-04T12:50:16.127Z,93810.97
2022-11-04T12:52:45.872Z,93816.41
2022-11-04T12:55:29.215Z,93820.47
2022-11-04T12:58:05.207Z,93821.16
2022-11-04T13:00:36.279Z,93827.59
2022-11-04T13:03:55.475Z,93824.06
2022-11-04T13:06:31.162Z,93830.72
2022-11-04T13:09:08.467Z,93836.50
2022-11-04T13:11:45.534Z,93838.09
2022-11-04T13:14:29.367Z,93847.69
2022-11-04T13:17:05.379Z,93842.84
2022-11-04T13:19:46.100Z,93828.19
2022-11-04T13:22:37.144Z,93849.22
2022-11-04T13:25:18.268Z,93846.69
2022-11-04T13:27:48.284Z,93828.41
2022-11-04T13:30:38.048Z,93829.31
2022-11-04T13:33:29.501Z,93838.53
2022-11-04T13:36:05.017Z,93821.34
2022-11-04T13:38:39.459Z,93823.63
2022-11-04T13:41:57.585Z,93846.81
2022-11-04T13:44:24.263Z,93850.16
2022-11-04T13:46:54.756Z,93846.13
2022-11-04T13:49:33.905Z,93845.41
2022-11-04T13:52:07.505Z,93823.63
2022-11-04T13:54:43.492Z,93838.47
2022-11-04T13:57:53.460Z,93840.88
2022-11-04T14:00:25.114Z,93840.16
2022-11-04T14:02:55.985Z,93837.34
2022-11-04T14:05:32.421Z,93847.00
2022-11-04T14:08:02.425Z,93848.09
2022-11-04T14:10:55.073Z,93842.44
2022-11-04T14:13:27.473Z,93844.06
2022-11-04T14:16:10.071Z,93849.09
2022-11-04T14:18:41.998Z,93851.22
2022-11-04T14:21:14.480Z,93851.94
2022-11-04T14:23:46.093Z,93852.66
2022-11-04T14:26:18.135Z,93855.28
2022-11-04T14:28:50.927Z,93855.75
2022-11-04T14:31:38.288Z,93847.41
2022-11-04T14:34:06.450Z,93847.69
2022-11-04T14:36:41.605Z,93844.41
2022-11-04T14:39:10.976Z,93850.41
2022-11-04T14:41:40.464Z,93850.09
2022-11-04T14:44:38.451Z,93850.69
2022-11-04T14:47:26.197Z,93863.00
2022-11-04T14:50:02.693Z,93855.44
2022-11-04T14:52:34.137Z,93860.38
2022-11-04T14:55:17.312Z,93859.47
2022-11-04T14:57:46.583Z,93857.06
2022-11-04T15:00:32.135Z,93864.03
2022-11-04T15:03:21.428Z,93861.59
2022-11-04T15:06:01.117Z,93866.13
2022-11-04T15:08:35.387Z,93856.34
2022-11-04T15:11:41.267Z,93865.41
2022-11-04T15:14:22.439Z,93867.59
2022-11-04T15:16:53.230Z,93868.19
2022-11-04T15:19:38.084Z,93866.75
2022-11-04T15:22:06.395Z,93869.88
2022-11-04T15:24:36.279Z,93865.56
2022-11-04T15:27:06.166Z,93864.22
2022-11-04T15:29:33.056Z,93860.28
2022-11-04T15:32:04.941Z,93862.06
2022-11-04T15:34:33.670Z,93859.94
2022-11-04T15:37:05.877Z,93862.84
2022-11-04T15:39:44.507Z,93874.56
2022-11-04T15:42:40.732Z,93865.56
2022-11-04T15:45:23.069Z,93868.47
2022-11-04T15:48:09.951Z,93863.88
2022-11-04T15:50:36.897Z,93873.66
2022-11-04T15:53:10.068Z,93871.03
2022-11-04T15:55:38.216Z,93869.91
2022-11-04T15:58:04.879Z,93873.25
2022-11-04T16:00:31.551Z,93873.03
2022-11-04T16:03:00.203Z,93879.50
2022-11-04T16:05:37.833Z,93869.13
2022-11-04T16:08:23.306Z,93864.22
2022-11-04T16:10:51.022Z,93878.50
2022-11-04T16:13:21.651Z,93885.34
2022-11-04T16:15:50.119Z,93891.59
2022-11-04T16:18:26.109Z,93898.97
2022-11-04T16:20:54.453Z,93901.41
2022-11-04T16:23:28.059Z,93907.13
2022-11-04T16:26:07.121Z,93900.75
2022-11-04T16:28:38.274Z,93907.94
2022-11-04T16:31:08.848Z,93904.63
2022-11-04T16:33:35.501Z,93909.16
2022-11-04T16:36:12.343Z,93884.78
2022-11-04T16:38:38.915Z,93906.81
2022-11-04T16:41:05.624Z,93896.41
2022-11-04T16:43:33.162Z,93915.19
2022-11-04T16:45:59.789Z,93909.22
2022-11-04T16:48:27.680Z,93904.75
2022-11-04T16:50:54.884Z,93908.09
2022-11-04T16:53:21.506Z,93918.34
2022-11-04T16:55:48.244Z,93915.72
2022-11-04T16:58:18.778Z,93924.56
2022-11-04T17:00:45.685Z,93912.78
2022-11-04T17:03:22.123Z,93926.78
2022-11-04T17:05:56.250Z,93930.38
2022-11-04T17:08:24.294Z,93926.84
2022-11-04T17:10:51.028Z,93929.25
2022-11-04T17:13:17.686Z,93924.25
2022-11-04T17:15:44.502Z,93935.94
2022-11-04T17:18:16.448Z,93940.75
2022-11-04T17:20:45.785Z,93946.25
2022-11-04T17:23:13.970Z,93941.31
2022-11-04T17:25:41.016Z,93950.34
2022-11-04T17:28:07.917Z,93956.06
2022-11-04T17:30:34.795Z,93957.75
2022-11-04T17:33:01.558Z,93953.13
2022-11-04T17:35:28.665Z,93973.03
2022-11-04T17:37:55.315Z,93956.47
2022-11-04T17:40:23.403Z,93980.25
2022-11-04T17:43:12.156Z,93972.69
2022-11-04T17:45:43.367Z,93966.31
2022-11-04T17:48:11.468Z,93981.25
2022-11-04T17:50:39.545Z,93988.66
2022-11-04T17:53:06.234Z,93986.81
2022-11-04T17:55:37.754Z,93968.09
2022-11-04T17:58:04.419Z,93979.25
2022-11-04T18:00:31.028Z,93984.47
2022-11-04T18:02:57.730Z,93984.53
2022-11-04T18:05:24.461Z,93984.34
2022-11-04T18:07:53.846Z,93994.53
2022-11-04T18:10:20.759Z,93991.97
2022-11-04T18:12:47.426Z,93990.81
2022-11-04T18:15:17.169Z,93996.50
2022-11-04T18:17:46.422Z,94006.97
2022-11-04T18:20:15.561Z,94006.75
2022-11-04T18:22:43.192Z,94014.66
2022-11-04T18:25:10.577Z,94016.31
2022-11-04T18:27:37.326Z,94024.69
2022-11-04T18:30:04.850Z,94023.50
2022-11-04T18:32:31.532Z,94006.41
2022-11-04T18:34:58.212Z,94012.84
2022-11-04T18:37:28.829Z,94034.47
2022-11-04T18:39:55.676Z,94032.06
2022-11-04T18:42:23.036Z,94016.91
2022-11-04T18:44:49.730Z,94035.91
2022-11-04T18:47:16.439Z,94031.88
2022-11-04T18:49:43.197Z,94036.78
2022-11-04T18:52:13.059Z,94021.66
2022-11-04T18:54:39.996Z,94038.75
2022-11-04T18:57:06.771Z,94025.03
2022-11-04T18:59:33.495Z,94046.41
2022-11-04T19:02:00.327Z,94023.63
2022-11-04T19:04:27.274Z,94045.00
2022-11-04T19:06:57.160Z,94051.66
2022-11-04T19:12:29.730Z,94039.81
2022-11-04T19:14:56.369Z,94065.22
2022-11-04T19:17:23.093Z,94064.06
2022-11-04T19:19:49.805Z,94057.88
2022-11-04T19:22:16.545Z,94050.28
2022-11-04T19:24:43.276Z,94071.88
2022-11-04T19:27:09.888Z,94064.78
2022-11-04T19:29:36.715Z,94088.31
2022-11-04T19:32:03.564Z,94092.31
2022-11-04T19:34:30.200Z,94099.72
2022-11-04T19:36:57.031Z,94100.66
2022-11-04T19:39:23.650Z,94098.03
2022-11-04T19:45:34.644Z,94097.09
2022-11-04T19:48:01.369Z,94103.25
2022-11-04T19:50:28.137Z,94102.78
2022-11-04T19:52:54.803Z,94114.19
2022-11-04T19:55:21.459Z,94108.72
2022-11-04T19:57:48.134Z,94121.06
2022-11-04T20:00:15.306Z,94121.75
2022-11-04T20:02:42.135Z,94128.16
2022-11-04T20:05:09.405Z,94136.94
2022-11-04T20:07:36.543Z,94140.03
2022-11-04T20:10:03.235Z,94141.94
2022-11-04T20:12:48.312Z,94145.47
2022-11-04T20:15:14.919Z,94151.63
2022-11-04T20:17:41.547Z,94155.88
2022-11-04T20:20:08.575Z,94155.88
2022-11-04T20:22:38.111Z,94161.34
2022-11-04T20:25:05.088Z,94156.81
2022-11-04T20:27:31.901Z,94174.13
2022-11-04T20:29:58.568Z,94178.16
2022-11-04T20:32:25.156Z,94190.25
2022-11-04T20:34:52.018Z,94186.94
2022-11-04T20:37:19.191Z,94197.34
2022-11-04T20:39:45.859Z,94203.03
2022-11-04T20:42:12.531Z,94199.44
2022-11-04T20:44:39.207Z,94201.84
2022-11-04T20:47:05.878Z,94204.19
2022-11-04T20:49:32.508Z,94211.56
2022-11-04T20:51:59.288Z,94221.75
2022-11-04T20:54:26.810Z,94224.16
2022-11-04T20:56:53.528Z,94226.94
2022-11-04T20:59:20.165Z,94222.91
2022-11-04T21:01:48.688Z,94232.44
2022-11-04T21:04:20.637Z,94232.16
2022-11-04T21:06:51.095Z,94228.41
2022-11-04T21:09:19.926Z,94230.75
2022-11-04T21:11:46.856Z,94222.91
2022-11-04T21:14:16.275Z,94229.56
2022-11-04T21:16:43.857Z,94233.09
2022-11-04T21:19:12.219Z,94231.69
2022-11-04T21:21:41.619Z,94233.81
2022-11-04T21:24:11.009Z,94240.94
2022-11-04T21:26:37.588Z,94235.69
2022-11-04T21:29:07.167Z,94240.69
2022-11-04T21:31:35.631Z,94244.72
2022-11-04T21:34:05.652Z,94239.50
2022-11-04T21:36:33.215Z,94239.50
2022-11-04T21:39:00.029Z,94234.75
2022-11-04T21:41:29.557Z,94239.50
2022-11-04T21:43:57.598Z,94229.06
2022-11-04T21:46:25.196Z,94230.94
2022-11-04T21:48:51.979Z,94239.97
2022-11-04T21:51:21.617Z,94240.41
2022-11-04T21:53:48.350Z,94239.94
2022-11-04T21:56:16.742Z,94238.28
2022-11-04T21:58:43.793Z,94235.69
2022-11-04T22:01:12.913Z,94234.06
2022-11-04T22:03:39.692Z,94239.50
2022-11-04T22:06:08.960Z,94243.06
2022-11-04T22:08:36.815Z,94244.69
2022-11-04T22:11:15.124Z,94246.13
2022-11-04T22:13:42.173Z,94245.88
2022-11-04T22:16:21.060Z,94247.75
2022-11-04T22:18:50.596Z,94251.56
2022-11-04T22:21:18.486Z,94248.25
2022-11-04T22:23:45.489Z,94252.28
2022-11-04T22:26:18.367Z,94250.38
2022-11-04T22:28:45.262Z,94244.88
2022-11-04T22:31:15.773Z,94247.50
2022-11-04T22:33:43.015Z,94255.31
2022-11-04T22:36:10.178Z,94261.75
2022-11-04T22:38:40.734Z,94263.91
2022-11-04T22:41:10.525Z,94267.94
2022-11-04T22:43:37.199Z,94276.94
2022-11-04T22:46:26.054Z,94277.19
2022-11-04T22:48:52.869Z,94279.56
2022-11-04T22:51:19.886Z,94282.44
2022-11-04T22:53:50.043Z,94285.03
2022-11-04T22:56:19.435Z,94282.44
2022-11-04T22:58:46.057Z,94285.03
2022-11-04T23:01:14.724Z,94289.06
2022-11-04T23:03:41.661Z,94292.66
2022-11-04T23:06:10.353Z,94288.88
2022-11-04T23:08:38.748Z,94288.88
2022-11-04T23:11:27.780Z,94298.81
2022-11-04T23:14:20.878Z,94300.00
2022-11-04T23:17:08.499Z,94305.22
2022-11-04T23:19:35.710Z,94305.22
2022-11-04T23:22:21.068Z,94304.75
2022-11-04T23:25:06.080Z,94308.78
2022-11-04T23:27:55.703Z,94310.97
2022-11-04T23:30:26.057Z,94312.81
2022-11-04T23:32:57.967Z,94314.28
2022-11-04T23:35:52.987Z,94312.81
2022-11-04T23:38:20.100Z,94316.88
2022-11-04T23:41:08.407Z,94318.31
2022-11-04T23:43:35.804Z,94323.28
2022-11-04T23:46:21.674Z,94315.69
2022-11-04T23:49:07.349Z,94323.78
2022-11-04T23:51:52.467Z,94326.41
2022-11-04T23:54:37.592Z,94329.28
2022-11-04T23:57:24.258Z,94325.25
